Boone County Airport
KHRO : now visible

Airfield :











YOU CAN JOIN US ON...

 
LOGIN :

Register | Disclaimer

   EN    FR    IT 

 









Legend :    VFR   Marginal VFR   IFR   Intensive IFR   Very Intensive IFR
Visi :
Ceiling :
>= 8 km
>= 3000ft
5 to 8 km
1000 to 3000 ft
1500m to 5 km
500 to 1000 ft
800 to 1500m
200 to 500 ft
< 800m
< 200 ft
Symbols :   Thunderstorms  Fog  Heavy snow  Heavy precipitations  Wind > 20 kt






- Airport Elevation : 1365 ft
- IATA code : HRO


KHRO - Boone County

CURRENT METAR :
  • 041453Z AUTO 15009KT 10SM OVC090 01/M04 A3030 RMK AO2 UPB03E11 SLP272 P0000 60000 T00111044 58006 $

EXPIRED METARs :
  • 041353Z AUTO 13006KT BKN080 OVC110 01/M05 A3032 RMK AO2 SLP278 T00111050 $
  • 041253Z AUTO 14007KT OVC095 01/M06 A3032 RMK AO2 SLP277 T00061056 $

TAF KHRO
Valid from the 04 at 12:00 until the 05 at 12:00 UTC


041120Z 0412/0512 15005KT P6SM VCSH SCT050 OVC080
TEMPO 0414/0418 -RAPL OVC050
FM041800 16005KT P6SM OVC050
FM050600 15008KT P6SM SCT015 OVC050
KZME FIR / North America



MET'MAP, your aeronautical weather chart ! - Copyright ORBIFLY December 2007 - Disclaimer

ORBIFLY MET'MAP TEAM :

Programming & Development : Alexandra Zaïnal
Original concept : Baudouin d'Aumeries
Technical & hardware support : Manuel Goepfert
Assistance : Marc-Olivier Méhu




SOURCES & CREDITS :

   NOAA       Earth
Advisory